Time;durP1;ratioP1;P1;durP2;ratioP2;P2;SDS_P1;SDS_P2;PMS_P1;PMS_P2;Temp;Humidity;BMP_temperature;BMP_pressure;BME280_temperature;BME280_humidity;BME280_pressure;Samples;Min_cycle;Max_cycle;Signal;HPM_P1;HPM_P2
2023/02/20 00:01:52;;;;;;;9.40;3.00;;;6.20;99.90;;;;;;5047232;28;20021;-70
2023/02/20 00:04:18;;;;;;;11.88;3.35;;;6.30;99.90;;;;;;5047300;28;20079;-74
2023/02/20 00:06:44;;;;;;;7.05;3.20;;;6.20;99.90;;;;;;5046013;28;20025;-72
2023/02/20 00:09:09;;;;;;;10.00;2.80;;;6.20;99.90;;;;;;5047764;28;20064;-74
2023/02/20 00:11:35;;;;;;;7.53;3.30;;;6.20;99.90;;;;;;5048230;28;20025;-74
2023/02/20 00:14:01;;;;;;;9.45;2.78;;;6.20;99.90;;;;;;5046517;28;20022;-73
2023/02/20 00:16:26;;;;;;;9.07;3.08;;;6.30;99.90;;;;;;5046449;28;20084;-74
2023/02/20 00:18:52;;;;;;;8.90;3.03;;;6.20;99.90;;;;;;5045340;28;20029;-72
2023/02/20 00:21:17;;;;;;;8.05;2.95;;;6.20;99.90;;;;;;5045489;28;20026;-72
2023/02/20 00:23:43;;;;;;;10.55;3.10;;;6.20;99.90;;;;;;5047029;28;20084;-73
2023/02/20 00:26:10;;;;;;;11.25;3.38;;;6.20;99.90;;;;;;5046165;28;20049;-76
2023/02/20 00:28:38;;;;;;;7.97;3.08;;;6.20;99.90;;;;;;5046001;28;20029;-72
2023/02/20 00:31:06;;;;;;;10.32;3.35;;;6.20;99.90;;;;;;5045774;28;20514;-71
2023/02/20 00:33:32;;;;;;;7.30;3.60;;;6.20;99.90;;;;;;5047763;28;20418;-75
2023/02/20 00:35:58;;;;;;;6.00;3.05;;;6.20;99.90;;;;;;5046591;28;20022;-73
2023/02/20 00:38:24;;;;;;;8.23;3.33;;;6.20;99.90;;;;;;5046490;28;20053;-75
2023/02/20 00:40:49;;;;;;;9.85;4.00;;;6.30;99.90;;;;;;5047535;28;20025;-71
2023/02/20 00:43:15;;;;;;;10.60;3.95;;;6.30;99.90;;;;;;5044465;28;20135;-71
2023/02/20 00:45:40;;;;;;;8.18;3.00;;;6.30;99.90;;;;;;5043570;28;20030;-72
2023/02/20 00:48:06;;;;;;;9.10;4.25;;;6.30;99.90;;;;;;5044069;28;20041;-73
2023/02/20 00:50:32;;;;;;;8.43;3.92;;;6.30;99.90;;;;;;5042663;28;20124;-73
2023/02/20 00:52:57;;;;;;;13.80;4.60;;;6.30;99.90;;;;;;5044221;28;20116;-76
2023/02/20 00:55:23;;;;;;;9.27;4.60;;;6.30;99.90;;;;;;5044267;28;20033;-75
2023/02/20 00:57:49;;;;;;;10.30;4.60;;;6.30;99.90;;;;;;5042819;28;20029;-76
2023/02/20 01:00:23;;;;;;;9.25;4.57;;;6.20;99.90;;;;;;5043944;28;20041;-74
2023/02/20 01:02:49;;;;;;;13.02;5.00;;;6.30;99.90;;;;;;5043049;28;20033;-72
2023/02/20 01:05:15;;;;;;;7.88;3.95;;;6.30;99.90;;;;;;5043728;28;20026;-73
2023/02/20 01:07:41;;;;;;;10.30;5.35;;;6.30;99.90;;;;;;5043739;28;20033;-78
2023/02/20 01:10:07;;;;;;;13.55;5.70;;;6.30;99.90;;;;;;5042040;28;20022;-74
2023/02/20 01:12:32;;;;;;;11.05;4.75;;;6.40;99.90;;;;;;5043870;28;20025;-77
2023/02/20 01:14:58;;;;;;;11.68;5.95;;;6.30;99.90;;;;;;5042674;28;20115;-71
2023/02/20 01:17:23;;;;;;;16.67;5.80;;;6.30;99.90;;;;;;5042283;28;20041;-70
2023/02/20 01:19:49;;;;;;;10.73;5.15;;;6.30;99.90;;;;;;5042101;28;20040;-72
2023/02/20 01:22:15;;;;;;;13.88;6.07;;;6.30;99.90;;;;;;5043596;28;20103;-76
2023/02/20 01:24:42;;;;;;;8.73;4.20;;;6.40;99.90;;;;;;5043023;28;20093;-72
2023/02/20 01:27:08;;;;;;;10.82;5.80;;;6.30;99.90;;;;;;5041960;28;20032;-75
2023/02/20 01:29:34;;;;;;;17.02;6.38;;;6.40;99.90;;;;;;5042788;28;20029;-72
2023/02/20 01:31:59;;;;;;;9.23;5.43;;;6.40;99.90;;;;;;5041275;28;20608;-77
2023/02/20 01:34:25;;;;;;;13.15;6.07;;;6.40;99.90;;;;;;5041714;28;20029;-76
2023/02/20 01:36:53;;;;;;;13.48;6.40;;;6.50;99.90;;;;;;5041433;28;20026;-73
2023/02/20 01:39:24;;;;;;;13.05;5.68;;;6.50;99.90;;;;;;5042307;28;20025;-71
2023/02/20 01:42:12;;;;;;;11.52;5.78;;;6.50;99.90;;;;;;5042527;28;20052;-72
2023/02/20 01:44:38;;;;;;;10.57;5.75;;;6.50;99.90;;;;;;5042032;28;20108;-75
2023/02/20 01:47:08;;;;;;;13.27;6.35;;;6.50;99.90;;;;;;5042906;28;20103;-75
2023/02/20 01:49:51;;;;;;;11.55;6.18;;;6.50;99.90;;;;;;5041794;28;20051;-74
2023/02/20 01:52:29;;;;;;;12.85;6.35;;;6.50;99.90;;;;;;5042386;28;20022;-73
2023/02/20 01:54:59;;;;;;;11.50;6.32;;;6.50;99.90;;;;;;5041289;28;20022;-73
2023/02/20 01:57:28;;;;;;;15.00;6.43;;;6.50;99.90;;;;;;5042525;28;20038;-74
2023/02/20 01:59:59;;;;;;;11.82;6.43;;;6.50;99.90;;;;;;5041220;28;20033;-75
2023/02/20 02:02:29;;;;;;;12.35;6.28;;;6.50;99.90;;;;;;5041291;28;20040;-73
2023/02/20 02:04:55;;;;;;;13.38;6.20;;;6.60;99.90;;;;;;5042217;28;20069;-72
2023/02/20 02:07:21;;;;;;;11.52;6.50;;;6.60;99.90;;;;;;5040218;28;20053;-71
2023/02/20 02:09:50;;;;;;;10.95;5.88;;;6.50;99.90;;;;;;5041079;28;20033;-74
2023/02/20 02:12:15;;;;;;;14.45;6.80;;;6.60;99.90;;;;;;5042249;28;20021;-76
2023/02/20 02:14:41;;;;;;;14.05;6.47;;;6.60;99.90;;;;;;5041414;28;20021;-72
2023/02/20 02:17:34;;;;;;;14.68;6.45;;;6.70;99.90;;;;;;5042605;28;20038;-73
2023/02/20 02:20:21;;;;;;;16.77;7.45;;;6.60;99.90;;;;;;5041466;28;20060;-72
2023/02/20 02:23:08;;;;;;;15.57;7.25;;;6.70;99.90;;;;;;5040561;28;20036;-73
2023/02/20 02:25:55;;;;;;;14.35;6.45;;;6.70;99.90;;;;;;5041807;28;20046;-73
2023/02/20 02:28:43;;;;;;;15.60;7.55;;;6.70;99.90;;;;;;5040943;28;20073;-71
2023/02/20 02:31:18;;;;;;;14.95;7.47;;;6.80;99.90;;;;;;5042245;28;20029;-74
2023/02/20 02:33:53;;;;;;;13.52;6.10;;;6.80;99.90;;;;;;5040299;28;20029;-72
2023/02/20 02:36:30;;;;;;;17.63;7.25;;;6.80;99.90;;;;;;5040486;28;20029;-73
2023/02/20 02:39:02;;;;;;;12.90;6.80;;;6.80;99.90;;;;;;5040577;28;20030;-74
2023/02/20 02:41:44;;;;;;;16.35;6.78;;;6.80;99.90;;;;;;5041384;28;20040;-71
2023/02/20 02:44:09;;;;;;;17.30;7.72;;;6.80;99.90;;;;;;5041412;28;20025;-71
2023/02/20 02:46:47;;;;;;;14.82;8.27;;;6.80;99.90;;;;;;5042070;28;20441;-75
2023/02/20 02:49:26;;;;;;;15.23;7.22;;;6.80;99.90;;;;;;5041694;28;20064;-72
2023/02/20 02:51:54;;;;;;;17.58;8.05;;;6.80;99.90;;;;;;5041647;28;20026;-72
2023/02/20 02:54:25;;;;;;;17.77;8.68;;;6.90;99.90;;;;;;5040778;28;20021;-73
2023/02/20 02:56:52;;;;;;;16.55;7.93;;;6.90;99.90;;;;;;5040559;28;20683;-72
2023/02/20 02:59:23;;;;;;;16.50;8.82;;;6.90;99.90;;;;;;5041132;28;20030;-76
2023/02/20 03:02:00;;;;;;;13.70;7.88;;;6.80;99.90;;;;;;5041747;28;20029;-70
2023/02/20 03:04:28;;;;;;;20.52;9.02;;;6.90;99.90;;;;;;5041935;28;20041;-72
2023/02/20 03:07:08;;;;;;;14.73;6.75;;;6.90;99.90;;;;;;5041082;28;20037;-74
2023/02/20 03:09:41;;;;;;;15.27;8.80;;;6.90;99.90;;;;;;5041411;28;20532;-72
2023/02/20 03:12:10;;;;;;;19.15;9.07;;;6.90;99.90;;;;;;5041632;28;20029;-74
2023/02/20 03:17:36;;;;;;;19.77;9.77;;;7.00;99.90;;;;;;5042262;28;20105;-71
2023/02/20 03:20:07;;;;;;;20.55;10.15;;;7.00;99.90;;;;;;5041010;28;20107;-71
2023/02/20 03:22:45;;;;;;;20.15;9.93;;;7.00;99.90;;;;;;5057102;28;20116;-71
2023/02/20 03:25:16;;;;;;;21.35;10.98;;;7.00;99.90;;;;;;5040098;28;20041;-76
2023/02/20 03:28:05;;;;;;;24.52;10.80;;;7.00;99.90;;;;;;5041293;28;20032;-72
2023/02/20 03:30:50;;;;;;;24.77;11.60;;;7.10;99.90;;;;;;5039819;28;20037;-72
2023/02/20 03:44:41;;;;;;;25.50;11.77;;;7.10;99.90;;;;;;5040315;28;20083;-71
2023/02/20 03:47:12;;;;;;;25.90;11.48;;;7.10;99.90;;;;;;5040256;28;20029;-73
2023/02/20 03:49:41;;;;;;;25.20;11.50;;;7.10;99.90;;;;;;5039931;28;20025;-74
2023/02/20 03:52:07;;;;;;;23.42;10.85;;;7.20;99.90;;;;;;5039169;28;20075;-75
2023/02/20 03:54:35;;;;;;;20.58;11.32;;;7.10;99.90;;;;;;5039416;28;20033;-71
2023/02/20 03:57:09;;;;;;;32.55;12.90;;;7.10;99.90;;;;;;5038873;28;20032;-70
2023/02/20 03:59:41;;;;;;;23.30;12.55;;;7.10;99.90;;;;;;5040539;28;20028;-73
2023/02/20 04:02:34;;;;;;;24.50;11.98;;;7.10;99.90;;;;;;5040186;28;20084;-73
2023/02/20 04:05:04;;;;;;;22.90;11.43;;;7.10;99.90;;;;;;5055067;28;20053;-75
2023/02/20 04:07:47;;;;;;;28.33;12.13;;;7.00;99.90;;;;;;5039334;28;20021;-71
2023/02/20 04:10:20;;;;;;;26.65;13.52;;;7.00;99.90;;;;;;5038620;28;21574;-72
2023/02/20 04:12:49;;;;;;;28.20;12.95;;;7.00;99.90;;;;;;5037604;28;20068;-72
2023/02/20 04:15:16;;;;;;;22.67;11.48;;;7.00;99.90;;;;;;5040991;28;20037;-72
2023/02/20 04:17:50;;;;;;;30.15;12.93;;;7.00;99.90;;;;;;5041447;28;20025;-73
2023/02/20 04:20:17;;;;;;;29.00;12.82;;;7.00;99.90;;;;;;5043461;28;20540;-75
2023/02/20 04:22:46;;;;;;;27.08;13.05;;;7.00;99.90;;;;;;5042944;28;20414;-73
2023/02/20 04:25:27;;;;;;;26.25;13.32;;;7.00;99.90;;;;;;5043757;28;20129;-73
2023/02/20 04:27:52;;;;;;;28.15;12.98;;;7.00;99.90;;;;;;5043035;28;20033;-73
2023/02/20 04:30:18;;;;;;;28.33;13.23;;;7.00;99.90;;;;;;5044712;28;20026;-73
2023/02/20 04:32:44;;;;;;;23.23;10.70;;;7.00;99.90;;;;;;5042500;28;20040;-72
2023/02/20 04:35:16;;;;;;;30.30;13.45;;;7.00;99.90;;;;;;5044391;28;20037;-72
2023/02/20 04:37:42;;;;;;;24.15;11.57;;;7.00;99.90;;;;;;5044365;28;20040;-73
2023/02/20 04:40:09;;;;;;;29.45;13.75;;;7.00;99.90;;;;;;5042853;28;20021;-74
2023/02/20 04:42:36;;;;;;;27.35;12.43;;;7.00;99.90;;;;;;5042608;28;20037;-74
2023/02/20 04:45:01;;;;;;;24.98;11.30;;;7.00;99.90;;;;;;5043271;28;20497;-74
2023/02/20 04:47:27;;;;;;;27.83;13.60;;;7.00;99.90;;;;;;5044759;28;20030;-73
2023/02/20 04:49:52;;;;;;;28.13;12.82;;;7.00;99.90;;;;;;5041629;28;20052;-72
2023/02/20 04:52:18;;;;;;;29.80;13.75;;;7.00;99.90;;;;;;5043940;28;20031;-72
2023/02/20 04:54:43;;;;;;;31.25;14.60;;;7.00;99.90;;;;;;5043647;28;20038;-75
2023/02/20 04:57:09;;;;;;;31.75;15.07;;;7.00;99.90;;;;;;5044255;28;20047;-75
2023/02/20 04:59:35;;;;;;;27.55;12.93;;;7.00;99.90;;;;;;5042498;28;20084;-73
2023/02/20 05:02:00;;;;;;;28.52;12.77;;;7.00;99.90;;;;;;5043080;28;20022;-75
2023/02/20 05:04:26;;;;;;;31.08;14.57;;;7.00;99.90;;;;;;5043688;28;20037;-72
2023/02/20 05:06:55;;;;;;;27.42;13.63;;;7.00;99.90;;;;;;5044062;28;20028;-74
2023/02/20 05:09:22;;;;;;;30.75;14.07;;;7.00;99.90;;;;;;5043279;28;20048;-74
2023/02/20 05:11:47;;;;;;;34.92;16.75;;;7.00;99.90;;;;;;5044053;28;20049;-73
2023/02/20 05:14:13;;;;;;;36.28;14.75;;;7.00;99.90;;;;;;5041985;28;20025;-71
2023/02/20 05:16:40;;;;;;;34.55;15.95;;;7.00;99.90;;;;;;5042048;28;20079;-72
2023/02/20 05:19:07;;;;;;;37.78;16.45;;;7.00;99.90;;;;;;5043366;28;20029;-71
2023/02/20 05:24:19;;;;;;;37.53;17.80;;;7.00;99.90;;;;;;5042279;28;20032;-72
2023/02/20 05:26:44;;;;;;;31.85;15.43;;;7.00;99.90;;;;;;5043960;28;20026;-73
2023/02/20 05:29:12;;;;;;;30.73;14.45;;;7.00;99.90;;;;;;5042214;28;20137;-73
2023/02/20 05:31:41;;;;;;;37.95;16.95;;;7.00;99.90;;;;;;5043655;28;20021;-74
2023/02/20 05:34:07;;;;;;;38.42;17.15;;;7.00;99.90;;;;;;5043698;28;20650;-72
2023/02/20 05:36:33;;;;;;;37.67;17.27;;;7.00;99.90;;;;;;5043248;28;20022;-74
2023/02/20 05:38:59;;;;;;;34.03;16.38;;;6.90;99.90;;;;;;5041883;28;20367;-71
2023/02/20 05:41:25;;;;;;;35.28;18.50;;;6.90;99.90;;;;;;5042533;28;20059;-72
2023/02/20 05:43:50;;;;;;;38.80;19.08;;;6.90;99.90;;;;;;5041172;28;20045;-71
2023/02/20 05:46:16;;;;;;;37.05;18.48;;;6.90;99.90;;;;;;5041723;28;20048;-72
2023/02/20 05:48:42;;;;;;;38.05;17.38;;;6.90;99.90;;;;;;5043060;28;20042;-71
2023/02/20 05:51:08;;;;;;;37.67;19.58;;;6.90;99.90;;;;;;5042844;28;20040;-74
2023/02/20 05:53:33;;;;;;;39.65;19.52;;;6.90;99.90;;;;;;5042578;28;20033;-72
2023/02/20 05:55:59;;;;;;;45.35;21.15;;;6.90;99.90;;;;;;5041803;28;20501;-70
2023/02/20 05:58:25;;;;;;;44.33;22.13;;;6.90;99.90;;;;;;5043167;28;20092;-74
2023/02/20 06:00:51;;;;;;;48.63;21.70;;;6.90;99.90;;;;;;5042556;28;20059;-72
2023/02/20 06:03:17;;;;;;;44.92;21.63;;;6.90;99.90;;;;;;5042889;28;20052;-70
2023/02/20 06:05:43;;;;;;;45.20;23.33;;;6.90;99.90;;;;;;5041485;28;20018;-73
2023/02/20 06:08:09;;;;;;;44.78;22.02;;;6.90;99.90;;;;;;5042879;28;20078;-76
2023/02/20 06:10:35;;;;;;;44.75;22.20;;;6.90;99.90;;;;;;5042301;28;20041;-74
2023/02/20 06:13:00;;;;;;;57.72;22.85;;;7.00;99.90;;;;;;5040706;28;20521;-71
2023/02/20 06:15:26;;;;;;;46.15;23.02;;;7.00;99.90;;;;;;5041118;28;20028;-73
2023/02/20 06:17:52;;;;;;;43.83;22.00;;;7.00;99.90;;;;;;5042309;28;20034;-71
2023/02/20 06:20:19;;;;;;;47.67;22.27;;;7.00;99.90;;;;;;5042134;28;20021;-72
2023/02/20 06:22:48;;;;;;;50.38;22.80;;;7.00;99.90;;;;;;5042565;28;20093;-72
2023/02/20 06:25:13;;;;;;;51.67;24.77;;;7.00;99.90;;;;;;5041929;28;20053;-74
2023/02/20 06:27:39;;;;;;;47.75;24.45;;;7.00;99.90;;;;;;5041656;28;20087;-72
2023/02/20 06:30:05;;;;;;;50.58;25.27;;;7.00;99.90;;;;;;5042090;28;20038;-72
2023/02/20 06:32:30;;;;;;;50.85;24.60;;;7.00;99.90;;;;;;5040924;28;20024;-72
2023/02/20 06:34:56;;;;;;;49.03;24.20;;;7.00;99.90;;;;;;5035950;28;20029;-72
2023/02/20 06:37:22;;;;;;;48.83;22.92;;;7.10;99.90;;;;;;5040887;28;20544;-72
2023/02/20 06:39:48;;;;;;;58.70;26.92;;;7.10;99.90;;;;;;5038646;28;20049;-72
2023/02/20 06:42:14;;;;;;;50.35;23.17;;;7.10;99.90;;;;;;5038403;28;20040;-71
2023/02/20 06:44:40;;;;;;;51.35;25.08;;;7.10;99.90;;;;;;5040857;28;20029;-71
2023/02/20 06:47:07;;;;;;;48.80;22.77;;;7.10;99.90;;;;;;5040275;28;20025;-72
2023/02/20 06:49:37;;;;;;;55.55;26.92;;;7.10;99.90;;;;;;5041826;28;20029;-72
2023/02/20 06:52:04;;;;;;;55.20;26.15;;;7.10;99.90;;;;;;5039930;28;20025;-71
2023/02/20 06:54:30;;;;;;;52.53;26.23;;;7.10;99.90;;;;;;5038836;28;20036;-71
2023/02/20 06:56:56;;;;;;;55.15;24.80;;;7.10;99.90;;;;;;5041475;28;20030;-72
2023/02/20 06:59:22;;;;;;;56.08;26.42;;;7.10;99.90;;;;;;5038616;28;20059;-71
2023/02/20 07:01:48;;;;;;;48.70;22.90;;;7.10;99.90;;;;;;5039680;28;20036;-73
2023/02/20 07:04:17;;;;;;;56.75;22.90;;;7.10;99.90;;;;;;5038093;28;20029;-72
2023/02/20 07:06:43;;;;;;;45.47;21.23;;;7.20;99.90;;;;;;5038887;28;20041;-73
2023/02/20 07:09:09;;;;;;;58.05;26.15;;;7.20;99.90;;;;;;5040934;28;20097;-74
2023/02/20 07:11:34;;;;;;;58.33;25.80;;;7.20;99.90;;;;;;5040482;28;20397;-72
2023/02/20 07:14:00;;;;;;;59.53;27.33;;;7.20;99.90;;;;;;5042014;28;20025;-71
2023/02/20 07:16:25;;;;;;;60.63;25.83;;;7.20;99.90;;;;;;5039506;28;20483;-71
2023/02/20 07:18:51;;;;;;;60.45;26.77;;;7.30;99.90;;;;;;5039046;28;20088;-73
2023/02/20 07:21:17;;;;;;;64.35;28.90;;;7.30;99.90;;;;;;5041577;28;20029;-69
2023/02/20 07:23:44;;;;;;;59.25;26.65;;;7.30;99.90;;;;;;5040908;28;20105;-71
2023/02/20 07:26:18;;;;;;;54.65;25.13;;;7.30;99.90;;;;;;5038942;28;20108;-74
2023/02/20 07:28:43;;;;;;;62.00;27.98;;;7.30;99.90;;;;;;5040124;28;20093;-71
2023/02/20 07:31:09;;;;;;;63.30;26.77;;;7.30;99.90;;;;;;5038828;28;20034;-72
2023/02/20 07:33:34;;;;;;;71.10;27.65;;;7.30;99.90;;;;;;5038048;28;20037;-72
2023/02/20 07:36:00;;;;;;;54.17;22.98;;;7.40;99.90;;;;;;5036887;28;20025;-70
2023/02/20 07:38:26;;;;;;;62.55;25.23;;;7.40;99.90;;;;;;5037375;28;20544;-72
2023/02/20 07:40:51;;;;;;;67.20;28.35;;;7.40;99.90;;;;;;5040899;28;20052;-70
2023/02/20 07:43:17;;;;;;;58.30;26.52;;;7.40;99.90;;;;;;5040004;28;20052;-72
2023/02/20 07:45:42;;;;;;;54.33;27.50;;;7.50;99.90;;;;;;5038901;28;20036;-70
2023/02/20 07:48:08;;;;;;;60.45;28.42;;;7.50;99.90;;;;;;5041189;28;20029;-70
2023/02/20 07:50:34;;;;;;;60.70;26.95;;;7.50;99.90;;;;;;5040012;28;20056;-69
2023/02/20 07:52:59;;;;;;;65.70;28.48;;;7.50;99.90;;;;;;5042875;28;20033;-70
2023/02/20 07:55:25;;;;;;;58.25;29.23;;;7.50;99.90;;;;;;5043974;28;20043;-70
2023/02/20 07:57:53;;;;;;;66.22;28.67;;;7.50;99.90;;;;;;5044271;28;20029;-69
2023/02/20 08:00:19;;;;;;;67.10;28.58;;;7.50;99.90;;;;;;5045144;28;20059;-71
2023/02/20 08:02:45;;;;;;;59.78;24.20;;;7.60;99.90;;;;;;5043437;28;20061;-70
2023/02/20 08:05:11;;;;;;;71.35;28.75;;;7.60;99.90;;;;;;5043106;28;20029;-73
2023/02/20 08:07:37;;;;;;;70.13;30.02;;;7.60;99.90;;;;;;5044558;28;20383;-70
2023/02/20 08:10:04;;;;;;;71.80;28.58;;;7.60;99.90;;;;;;5043323;28;20044;-71
2023/02/20 08:12:30;;;;;;;63.33;28.73;;;7.60;99.90;;;;;;5044155;28;20037;-70
2023/02/20 08:14:55;;;;;;;64.43;24.67;;;7.70;99.90;;;;;;5043817;28;20516;-69
2023/02/20 08:17:21;;;;;;;53.90;24.85;;;7.70;99.90;;;;;;5044331;28;20029;-69
2023/02/20 08:19:46;;;;;;;66.13;26.80;;;7.70;99.90;;;;;;5043397;28;20022;-72
2023/02/20 08:22:12;;;;;;;62.60;26.15;;;7.70;99.90;;;;;;5043425;28;20033;-70
2023/02/20 08:24:37;;;;;;;70.10;28.15;;;7.80;99.90;;;;;;5044825;28;20049;-68
2023/02/20 08:27:03;;;;;;;71.25;29.00;;;7.80;99.90;;;;;;5045169;28;20034;-70
2023/02/20 08:29:29;;;;;;;66.55;27.65;;;7.80;99.90;;;;;;5044822;28;20052;-69
2023/02/20 08:31:55;;;;;;;64.53;26.95;;;7.80;99.90;;;;;;5044332;28;20486;-73
2023/02/20 08:34:20;;;;;;;61.95;25.25;;;7.90;99.90;;;;;;5043331;28;20013;-72
2023/02/20 08:36:46;;;;;;;64.72;28.25;;;7.90;99.90;;;;;;5041391;28;20036;-74
2023/02/20 08:39:11;;;;;;;73.75;27.30;;;7.90;99.90;;;;;;5044428;28;20021;-69
2023/02/20 08:41:45;;;;;;;78.30;29.65;;;7.90;99.90;;;;;;5044741;28;20033;-71
2023/02/20 08:44:11;;;;;;;73.45;28.50;;;7.90;99.90;;;;;;5044033;28;20037;-72
2023/02/20 08:46:37;;;;;;;57.28;26.83;;;7.90;99.90;;;;;;5044210;28;20080;-73
2023/02/20 08:49:03;;;;;;;74.43;28.83;;;8.00;99.90;;;;;;5044394;28;20053;-70
2023/02/20 08:51:29;;;;;;;65.68;27.15;;;8.00;99.90;;;;;;5041937;28;20037;-70
2023/02/20 08:53:54;;;;;;;65.60;27.13;;;8.00;99.90;;;;;;5040982;28;20037;-73
2023/02/20 08:56:20;;;;;;;64.43;27.55;;;8.00;99.90;;;;;;5038801;28;20025;-73
2023/02/20 08:58:46;;;;;;;72.75;30.23;;;8.00;99.90;;;;;;5041546;28;20055;-71
2023/02/20 09:01:12;;;;;;;50.47;22.90;;;8.00;99.90;;;;;;5042020;28;20029;-72
2023/02/20 09:03:40;;;;;;;72.10;28.15;;;8.10;99.90;;;;;;5042923;28;20030;-71
2023/02/20 09:06:06;;;;;;;68.22;26.95;;;8.00;99.90;;;;;;5043846;28;20089;-72
2023/02/20 09:08:32;;;;;;;56.95;25.63;;;8.00;99.90;;;;;;5044363;28;20038;-71
2023/02/20 09:10:58;;;;;;;59.03;25.45;;;8.00;99.90;;;;;;5038698;28;20521;-72
2023/02/20 09:13:23;;;;;;;67.72;28.00;;;8.00;99.90;;;;;;5042710;28;20045;-72
2023/02/20 09:15:49;;;;;;;72.63;27.35;;;8.10;99.90;;;;;;5042016;28;20034;-73
2023/02/20 09:18:14;;;;;;;67.70;27.45;;;8.10;99.90;;;;;;5041144;28;20037;-69
2023/02/20 09:20:40;;;;;;;67.43;27.50;;;8.10;99.90;;;;;;5038905;28;20551;-71
2023/02/20 09:23:07;;;;;;;67.47;26.15;;;8.10;99.90;;;;;;5039640;28;20466;-70
2023/02/20 09:25:34;;;;;;;66.15;25.98;;;8.10;99.90;;;;;;5041634;28;20054;-73
2023/02/20 09:28:00;;;;;;;66.55;24.92;;;8.10;99.90;;;;;;5042697;28;20059;-73
2023/02/20 09:30:26;;;;;;;59.55;25.83;;;8.20;99.90;;;;;;5043028;28;20067;-72
2023/02/20 09:32:53;;;;;;;53.67;22.33;;;8.20;99.90;;;;;;5041049;28;20140;-72
2023/02/20 09:35:26;;;;;;;53.97;24.15;;;8.20;99.90;;;;;;5042298;28;20048;-70
2023/02/20 09:37:54;;;;;;;53.90;19.45;;;8.20;99.90;;;;;;5042970;28;20029;-70
2023/02/20 09:40:24;;;;;;;56.38;22.02;;;8.20;99.90;;;;;;5039189;28;20056;-72
2023/02/20 09:43:00;;;;;;;55.30;21.90;;;8.20;99.90;;;;;;5040743;28;20060;-71
2023/02/20 09:45:29;;;;;;;57.25;24.80;;;8.30;99.90;;;;;;5042911;28;20085;-71
2023/02/20 09:47:58;;;;;;;46.85;22.27;;;8.30;99.90;;;;;;5039216;28;20041;-70
2023/02/20 09:50:50;;;;;;;63.25;23.20;;;8.30;99.90;;;;;;5043181;28;20033;-71
2023/02/20 09:53:18;;;;;;;50.10;19.88;;;8.30;99.90;;;;;;5037248;28;20037;-71
2023/02/20 09:55:44;;;;;;;52.15;22.70;;;8.30;99.90;;;;;;5039810;28;20021;-73
2023/02/20 09:58:26;;;;;;;53.78;22.73;;;8.40;99.90;;;;;;5040992;28;20099;-73
2023/02/20 10:00:56;;;;;;;53.05;21.65;;;8.40;99.90;;;;;;5039193;28;20053;-72
2023/02/20 10:03:33;;;;;;;53.05;19.75;;;8.50;99.90;;;;;;5040643;28;20120;-70
2023/02/20 10:06:02;;;;;;;45.97;20.50;;;8.50;99.90;;;;;;5041006;28;20047;-71
2023/02/20 10:08:28;;;;;;;42.50;18.55;;;8.50;99.90;;;;;;5046979;28;20045;-71
2023/02/20 10:10:59;;;;;;;40.55;18.15;;;8.60;99.90;;;;;;5041184;28;20032;-71
2023/02/20 10:13:33;;;;;;;39.90;16.83;;;8.60;99.90;;;;;;5041160;28;20533;-70
2023/02/20 10:16:01;;;;;;;42.37;18.87;;;8.60;99.90;;;;;;5041858;28;20081;-69
2023/02/20 10:19:23;;;;;;;45.05;17.35;;;8.70;99.90;;;;;;5035884;28;20423;-70
2023/02/20 10:21:54;;;;;;;39.60;15.85;;;8.70;99.90;;;;;;4999874;28;20065;-72
2023/02/20 10:24:45;;;;;;;45.63;14.68;;;8.70;99.90;;;;;;5038751;28;20033;-69
2023/02/20 10:27:30;;;;;;;39.67;17.52;;;8.80;99.90;;;;;;5040501;28;20132;-70
2023/02/20 10:29:57;;;;;;;;;;;8.80;99.90;;;;;;5041186;28;20049;-69
2023/02/20 10:32:37;;;;;;;41.33;17.23;;;8.80;99.90;;;;;;5041173;28;19913;-74
2023/02/20 10:35:10;;;;;;;39.83;16.40;;;8.90;99.90;;;;;;5040994;28;20055;-71
2023/02/20 10:37:44;;;;;;;38.10;17.42;;;8.80;99.90;;;;;;5040601;28;20044;-70
2023/02/20 10:40:23;;;;;;;35.78;16.85;;;8.90;99.90;;;;;;5039642;28;20036;-71
2023/02/20 10:43:08;;;;;;;41.30;15.30;;;8.90;99.90;;;;;;5038665;28;20083;-71
2023/02/20 10:45:51;;;;;;;35.88;14.98;;;8.90;99.90;;;;;;5041154;28;20049;-73
2023/02/20 10:48:17;;;;;;;35.78;14.88;;;8.90;99.90;;;;;;5040041;28;20053;-73
2023/02/20 10:50:49;;;;;;;40.90;14.82;;;8.90;99.90;;;;;;5040457;28;20376;-69
2023/02/20 10:53:32;;;;;;;32.00;14.18;;;9.00;99.90;;;;;;5041051;28;20024;-70
2023/02/20 10:56:02;;;;;;;29.02;12.02;;;9.00;99.90;;;;;;5041094;28;20029;-70
2023/02/20 10:58:34;;;;;;;32.75;13.48;;;9.00;99.90;;;;;;5040725;28;20021;-74
2023/02/20 11:01:04;;;;;;;40.05;15.60;;;9.00;99.90;;;;;;5042145;28;20033;-72
2023/02/20 11:03:49;;;;;;;40.35;14.93;;;9.00;99.90;;;;;;5042266;28;20466;-75
2023/02/20 11:06:18;;;;;;;38.25;14.27;;;9.00;99.90;;;;;;5041050;28;20049;-70
2023/02/20 11:08:45;;;;;;;32.58;13.95;;;9.00;99.90;;;;;;5039810;28;20041;-70
2023/02/20 11:11:34;;;;;;;33.47;13.45;;;9.00;99.90;;;;;;5040002;28;20033;-70
2023/02/20 11:14:08;;;;;;;35.35;14.13;;;9.10;99.90;;;;;;5041805;28;20096;-70
2023/02/20 11:16:41;;;;;;;29.05;11.98;;;9.10;99.90;;;;;;5041145;28;20029;-70
2023/02/20 11:19:32;;;;;;;45.72;13.75;;;9.10;99.90;;;;;;5040115;28;20025;-71
2023/02/20 11:21:58;;;;;;;29.08;12.48;;;9.10;99.90;;;;;;5040030;28;20124;-72
2023/02/20 11:24:33;;;;;;;34.22;13.52;;;9.10;99.90;;;;;;5040218;28;20085;-70
2023/02/20 11:27:03;;;;;;;21.77;11.10;;;9.10;99.90;;;;;;5041654;28;20083;-70
2023/02/20 11:29:39;;;;;;;28.67;11.40;;;9.10;99.90;;;;;;5041185;28;20034;-69
2023/02/20 11:32:36;;;;;;;30.20;10.82;;;9.10;99.90;;;;;;5039575;28;20325;-69
2023/02/20 11:35:16;;;;;;;31.45;10.55;;;9.10;99.90;;;;;;5041055;28;20081;-72
2023/02/20 11:37:47;;;;;;;24.08;11.65;;;9.20;99.90;;;;;;5038766;28;20042;-71
2023/02/20 11:40:21;;;;;;;30.75;11.43;;;9.20;99.90;;;;;;5040964;28;20091;-70
2023/02/20 11:42:48;;;;;;;28.00;11.10;;;9.20;99.90;;;;;;5039685;28;20038;-70
2023/02/20 11:45:18;;;;;;;25.50;11.30;;;9.30;99.90;;;;;;5039941;28;20022;-69
2023/02/20 11:47:44;;;;;;;24.23;9.50;;;9.30;99.90;;;;;;5039575;28;20033;-71
2023/02/20 11:50:17;;;;;;;26.15;10.93;;;9.30;99.90;;;;;;5037983;28;20049;-72
2023/02/20 11:52:58;;;;;;;25.67;10.98;;;9.30;99.90;;;;;;5039161;28;20036;-69
2023/02/20 11:55:26;;;;;;;32.40;11.10;;;9.30;99.90;;;;;;5040705;28;20794;-68
2023/02/20 11:57:51;;;;;;;25.25;10.82;;;9.30;99.90;;;;;;5040624;28;20475;-68
2023/02/20 12:00:28;;;;;;;25.88;10.00;;;9.30;99.90;;;;;;5036903;28;20026;-71
2023/02/20 12:03:03;;;;;;;27.77;10.05;;;9.40;99.90;;;;;;5039804;28;20410;-72
2023/02/20 12:05:38;;;;;;;25.25;10.18;;;9.40;99.90;;;;;;5028639;28;20038;-72
2023/02/20 12:08:38;;;;;;;27.25;8.40;;;9.40;99.90;;;;;;5034159;28;20036;-69
2023/02/20 12:11:11;;;;;;;25.20;9.20;;;9.40;99.90;;;;;;5040455;28;20017;-73
2023/02/20 12:13:43;;;;;;;26.65;10.02;;;9.40;99.90;;;;;;5038253;28;20033;-73
2023/02/20 12:16:31;;;;;;;23.55;9.30;;;9.40;99.90;;;;;;5038267;28;20031;-74
2023/02/20 12:19:14;;;;;;;19.48;8.88;;;9.40;99.90;;;;;;5038759;28;20477;-71
2023/02/20 12:22:13;;;;;;;29.42;9.35;;;9.40;99.90;;;;;;5040436;28;20037;-70
2023/02/20 12:24:57;;;;;;;23.20;10.45;;;9.50;99.90;;;;;;5039929;28;20425;-72
2023/02/20 12:27:31;;;;;;;19.63;9.40;;;9.40;99.90;;;;;;5041040;28;20038;-76
2023/02/20 12:29:57;;;;;;;20.88;8.75;;;9.50;99.90;;;;;;5039374;28;20029;-73
2023/02/20 12:32:26;;;;;;;26.88;10.00;;;9.50;99.90;;;;;;5040931;28;20049;-71
2023/02/20 12:35:10;;;;;;;22.42;9.25;;;9.40;99.90;;;;;;5039243;28;20033;-70
2023/02/20 12:38:05;;;;;;;25.35;9.35;;;9.40;99.90;;;;;;5040552;28;20036;-69
2023/02/20 12:40:40;;;;;;;;;;;9.50;99.90;;;;;;5045217;28;20030;-72
2023/02/20 12:43:19;;;;;;;22.10;8.38;;;9.50;99.90;;;;;;5039742;28;19976;-74
2023/02/20 12:46:23;;;;;;;30.75;9.85;;;9.50;99.90;;;;;;5042229;28;20132;-72
2023/02/20 12:48:55;;;;;;;24.75;10.20;;;9.50;99.90;;;;;;5043548;28;20037;-69
2023/02/20 12:51:31;;;;;;;31.80;10.98;;;9.50;99.90;;;;;;5043033;28;20021;-72
2023/02/20 12:54:39;;;;;;;17.42;8.05;;;9.50;99.90;;;;;;5041727;28;20029;-74
2023/02/20 12:57:35;;;;;;;19.63;8.70;;;9.50;99.90;;;;;;5028035;28;20033;-69
2023/02/20 13:00:28;;;;;;;21.48;9.15;;;9.50;99.90;;;;;;5042876;28;20139;-72
2023/02/20 13:03:10;;;;;;;23.25;8.60;;;9.50;99.90;;;;;;5041310;28;20049;-71
2023/02/20 13:05:42;;;;;;;22.25;9.48;;;9.50;99.90;;;;;;5036856;28;20057;-71
2023/02/20 13:08:32;;;;;;;20.77;8.40;;;9.50;99.90;;;;;;5039372;28;20089;-69
2023/02/20 13:11:01;;;;;;;28.38;9.90;;;9.50;99.90;;;;;;5043252;28;20030;-71
2023/02/20 13:14:05;;;;;;;27.67;9.15;;;9.40;99.90;;;;;;5042948;28;20101;-70
2023/02/20 13:16:39;;;;;;;26.60;9.45;;;9.40;99.90;;;;;;5042377;28;20695;-72